createdAt,value
2023-02-11T00:02:59.073Z,5.78
2023-02-11T00:06:38.802Z,7.25
2023-02-11T00:09:47.989Z,6.68
2023-02-11T00:13:00.008Z,8.45
2023-02-11T00:16:23.447Z,7.43
2023-02-11T00:19:28.579Z,7.20
2023-02-11T00:22:51.096Z,7.28
2023-02-11T00:26:40.993Z,6.03
2023-02-11T00:29:43.935Z,6.25
2023-02-11T00:33:08.039Z,5.82
2023-02-11T00:36:31.437Z,6.50
2023-02-11T00:39:43.331Z,6.25
2023-02-11T00:43:07.274Z,5.53
2023-02-11T00:46:10.811Z,5.80
2023-02-11T00:49:15.973Z,7.45
2023-02-11T00:52:39.916Z,6.28
2023-02-11T00:55:49.409Z,8.25
2023-02-11T00:58:54.024Z,7.82
2023-02-11T01:01:56.966Z,8.00
2023-02-11T01:05:05.579Z,5.18
2023-02-11T01:08:10.270Z,5.82
2023-02-11T01:11:19.694Z,6.70
2023-02-11T01:14:42.747Z,6.85
2023-02-11T01:17:50.436Z,7.25
2023-02-11T01:21:16.606Z,7.15
2023-02-11T01:24:20.983Z,7.22
2023-02-11T01:27:23.486Z,5.43
2023-02-11T01:30:31.772Z,6.25
2023-02-11T01:33:41.217Z,4.80
2023-02-11T01:37:05.987Z,4.20
2023-02-11T01:40:20.449Z,4.10
2023-02-11T01:43:37.815Z,6.82
2023-02-11T01:47:06.456Z,5.65
2023-02-11T01:50:13.257Z,9.35
2023-02-11T01:53:37.332Z,5.53
2023-02-11T01:57:07.503Z,5.72
2023-02-11T02:00:36.694Z,7.00
2023-02-11T02:04:13.480Z,5.32
2023-02-11T02:07:49.809Z,5.95
2023-02-11T02:11:01.127Z,5.80
2023-02-11T02:14:27.051Z,5.57
2023-02-11T02:18:30.184Z,6.50
2023-02-11T02:21:43.567Z,8.20
2023-02-11T02:25:01.187Z,6.20
2023-02-11T02:31:50.592Z,4.10
2023-02-11T02:35:26.520Z,5.10
2023-02-11T02:38:40.889Z,6.78
2023-02-11T02:41:53.659Z,5.85
2023-02-11T02:48:01.930Z,5.78
2023-02-11T02:51:42.822Z,6.43
2023-02-11T02:54:59.806Z,5.78
2023-02-11T02:58:43.127Z,5.60
2023-02-11T03:01:57.923Z,6.55
2023-02-11T03:05:12.233Z,5.03
2023-02-11T03:08:37.846Z,5.57
2023-02-11T03:11:47.690Z,5.57
2023-02-11T03:14:52.795Z,8.35
2023-02-11T03:18:03.224Z,7.90
2023-02-11T03:21:09.306Z,5.50
2023-02-11T03:24:20.840Z,5.53
2023-02-11T03:27:47.819Z,4.68
2023-02-11T03:31:20.620Z,3.92
2023-02-11T03:34:51.445Z,6.00
2023-02-11T03:38:16.450Z,4.87
2023-02-11T03:41:23.542Z,5.43
2023-02-11T03:44:33.414Z,5.62
2023-02-11T03:48:09.233Z,4.45
2023-02-11T03:51:33.689Z,4.28
2023-02-11T03:55:21.071Z,4.43
2023-02-11T03:58:27.567Z,3.65
2023-02-11T04:01:35.960Z,4.22
2023-02-11T04:04:44.115Z,4.47
2023-02-11T04:07:50.978Z,5.37
2023-02-11T04:11:19.060Z,5.20
2023-02-11T04:15:02.025Z,4.82
2023-02-11T04:18:26.950Z,3.80
2023-02-11T04:21:49.891Z,4.87
2023-02-11T04:24:55.464Z,4.68
2023-02-11T04:28:20.081Z,4.30
2023-02-11T04:31:26.305Z,4.22
2023-02-11T04:34:29.809Z,5.05
2023-02-11T04:37:36.228Z,5.20
2023-02-11T04:40:46.682Z,3.97
2023-02-11T04:43:49.964Z,2.78
2023-02-11T04:46:53.629Z,6.78
2023-02-11T04:50:00.595Z,5.15
2023-02-11T04:53:06.310Z,4.68
2023-02-11T04:56:10.567Z,4.10
2023-02-11T04:59:15.116Z,5.50
2023-02-11T05:02:18.940Z,6.57
2023-02-11T05:05:42.598Z,4.87
2023-02-11T05:09:12.382Z,4.30
2023-02-11T05:12:19.002Z,5.57
2023-02-11T05:15:26.988Z,5.10
2023-02-11T05:18:30.339Z,4.97
2023-02-11T05:21:36.311Z,4.47
2023-02-11T05:24:42.911Z,5.37
2023-02-11T05:28:07.356Z,4.53
2023-02-11T05:31:11.542Z,4.10
2023-02-11T05:34:19.334Z,5.45
2023-02-11T05:37:24.555Z,6.93
2023-02-11T05:40:29.267Z,5.90
2023-02-11T05:43:36.592Z,6.30
2023-02-11T05:46:47.254Z,6.70
2023-02-11T05:49:56.410Z,6.35
2023-02-11T05:52:59.842Z,6.45
2023-02-11T05:56:11.997Z,5.32
2023-02-11T05:59:16.780Z,6.53
2023-02-11T06:02:21.341Z,7.37
2023-02-11T06:05:30.718Z,5.32
2023-02-11T06:08:43.052Z,5.35
2023-02-11T06:12:10.619Z,5.03
2023-02-11T06:15:35.682Z,3.70
2023-02-11T06:19:07.736Z,5.37
2023-02-11T06:22:10.634Z,5.35
2023-02-11T06:25:33.910Z,6.82
2023-02-11T06:28:40.024Z,6.68
2023-02-11T06:31:46.000Z,3.85
2023-02-11T06:34:52.162Z,4.18
2023-02-11T06:37:59.822Z,5.28
2023-02-11T06:41:47.997Z,6.15
2023-02-11T06:45:20.723Z,4.80
2023-02-11T06:48:29.347Z,5.60
2023-02-11T06:51:53.155Z,5.53
2023-02-11T06:54:56.032Z,6.97
2023-02-11T06:58:00.273Z,8.20
2023-02-11T07:01:09.100Z,8.05
2023-02-11T07:04:16.956Z,5.75
2023-02-11T07:07:20.570Z,5.55
2023-02-11T07:10:26.519Z,6.95
2023-02-11T07:13:29.112Z,5.35
2023-02-11T07:16:33.346Z,7.00
2023-02-11T07:19:35.958Z,6.50
2023-02-11T07:23:12.526Z,5.57
2023-02-11T07:26:23.293Z,6.28
2023-02-11T07:29:28.085Z,5.90
2023-02-11T07:32:36.270Z,7.97
2023-02-11T07:35:42.543Z,7.32
2023-02-11T07:39:03.071Z,9.05
2023-02-11T07:42:06.655Z,7.55
2023-02-11T07:45:29.846Z,7.28
2023-02-11T07:49:05.906Z,8.27
2023-02-11T07:52:11.416Z,8.70
2023-02-11T07:55:14.750Z,7.72
2023-02-11T07:58:18.153Z,9.45
2023-02-11T08:01:28.363Z,7.60
2023-02-11T08:04:53.958Z,8.55
2023-02-11T08:07:58.575Z,6.95
2023-02-11T08:11:15.888Z,7.85
2023-02-11T08:14:38.635Z,7.62
2023-02-11T08:18:13.967Z,9.75
2023-02-11T08:21:37.904Z,8.43
2023-02-11T08:24:46.937Z,9.43
2023-02-11T08:27:55.309Z,9.80
2023-02-11T08:31:05.724Z,9.70
2023-02-11T08:34:12.016Z,10.52
2023-02-11T08:37:18.337Z,11.07
2023-02-11T08:40:21.642Z,11.30
2023-02-11T08:43:28.090Z,12.80
2023-02-11T08:46:52.111Z,11.55
2023-02-11T08:49:56.598Z,11.65
2023-02-11T08:53:20.257Z,12.18
2023-02-11T08:56:33.708Z,13.48
2023-02-11T08:59:40.152Z,10.27
2023-02-11T09:02:42.741Z,9.57
2023-02-11T09:05:50.578Z,10.32
2023-02-11T09:12:03.608Z,9.70
2023-02-11T09:15:38.975Z,7.28
2023-02-11T09:19:23.554Z,7.25
2023-02-11T09:22:48.666Z,10.05
2023-02-11T09:26:00.103Z,8.45
2023-02-11T09:29:05.136Z,8.88
2023-02-11T09:32:12.476Z,9.32
2023-02-11T09:35:19.601Z,8.18
2023-02-11T09:38:44.254Z,8.43
2023-02-11T09:42:10.838Z,8.45
2023-02-11T09:45:28.758Z,10.05
2023-02-11T09:48:55.729Z,8.68
2023-02-11T09:52:27.272Z,7.62
2023-02-11T09:55:56.069Z,6.60
2023-02-11T09:58:59.648Z,9.07
2023-02-11T10:02:14.540Z,8.05
2023-02-11T10:06:04.028Z,8.82
2023-02-11T10:09:19.058Z,9.88
2023-02-11T10:12:49.847Z,9.27
2023-02-11T10:16:06.820Z,8.38
2023-02-11T10:19:51.703Z,8.23
2023-02-11T10:23:21.553Z,9.55
2023-02-11T10:26:32.310Z,10.38
2023-02-11T10:29:43.477Z,10.63
2023-02-11T10:32:54.738Z,11.48
2023-02-11T10:36:18.662Z,9.82
2023-02-11T10:39:28.154Z,8.55
2023-02-11T10:42:32.663Z,10.07
2023-02-11T10:46:17.734Z,10.35
2023-02-11T10:49:39.432Z,8.85
2023-02-11T10:52:44.358Z,10.60
2023-02-11T10:56:00.020Z,9.25
2023-02-11T10:59:14.010Z,9.45
2023-02-11T11:02:38.824Z,8.82
2023-02-11T11:06:02.919Z,11.77
2023-02-11T11:09:21.892Z,10.97
2023-02-11T11:12:48.988Z,10.13
2023-02-11T11:19:21.834Z,8.88
2023-02-11T11:22:47.461Z,10.38
2023-02-11T11:26:29.271Z,10.20
2023-02-11T11:29:51.491Z,9.20
2023-02-11T11:32:54.738Z,9.63
2023-02-11T11:36:12.861Z,9.98
2023-02-11T11:39:19.550Z,10.15
2023-02-11T11:42:33.915Z,9.82
2023-02-11T11:45:59.543Z,8.40
2023-02-11T11:49:31.054Z,10.85
2023-02-11T11:53:19.348Z,9.48
2023-02-11T11:56:26.440Z,9.32
2023-02-11T12:03:19.301Z,8.45
2023-02-11T12:06:31.384Z,9.30
2023-02-11T12:09:51.285Z,9.20
2023-02-11T12:13:08.021Z,9.90
2023-02-11T12:16:23.437Z,10.15
2023-02-11T12:20:03.810Z,9.35
2023-02-11T12:23:38.728Z,9.05
2023-02-11T12:26:56.654Z,9.00
2023-02-11T12:30:15.857Z,9.70
2023-02-11T12:33:26.974Z,8.93
2023-02-11T12:37:27.880Z,8.40
2023-02-11T12:41:07.202Z,8.18
2023-02-11T12:44:48.480Z,8.32
2023-02-11T12:47:58.264Z,9.77
2023-02-11T12:51:05.562Z,8.15
2023-02-11T12:54:11.068Z,8.23
2023-02-11T12:57:24.749Z,9.88
2023-02-11T13:00:47.692Z,8.48
2023-02-11T13:03:59.179Z,8.10
2023-02-11T13:07:26.161Z,8.35
2023-02-11T13:10:38.319Z,8.15
2023-02-11T13:14:01.823Z,8.55
2023-02-11T13:17:20.165Z,8.55
2023-02-11T13:20:49.372Z,7.72
2023-02-11T13:24:08.497Z,8.52
2023-02-11T13:27:45.963Z,8.55
2023-02-11T13:30:57.601Z,8.98
2023-02-11T13:34:01.306Z,8.02
2023-02-11T13:37:12.927Z,7.62
2023-02-11T13:40:41.055Z,7.78
2023-02-11T13:43:45.589Z,8.07
2023-02-11T13:47:01.529Z,7.57
2023-02-11T13:50:08.459Z,7.87
2023-02-11T13:53:12.357Z,9.13
2023-02-11T13:56:46.338Z,9.73
2023-02-11T13:59:51.030Z,8.45
2023-02-11T14:03:32.278Z,6.60
2023-02-11T14:07:45.537Z,7.35
2023-02-11T14:10:53.167Z,8.80
2023-02-11T14:14:18.178Z,9.05
2023-02-11T14:17:31.631Z,7.00
2023-02-11T14:20:39.718Z,8.13
2023-02-11T14:24:02.335Z,7.12
2023-02-11T14:27:30.678Z,6.30
2023-02-11T14:30:42.830Z,4.75
2023-02-11T14:34:24.520Z,4.85
2023-02-11T14:38:07.562Z,5.50
2023-02-11T14:41:51.496Z,5.18
2023-02-11T14:45:05.241Z,4.97
2023-02-11T14:48:16.052Z,5.85
2023-02-11T14:51:27.850Z,5.85
2023-02-11T14:54:32.253Z,4.65
2023-02-11T14:57:37.688Z,5.87
2023-02-11T15:00:53.881Z,5.40
2023-02-11T15:04:29.220Z,6.28
2023-02-11T15:07:32.735Z,5.75
2023-02-11T15:10:45.632Z,4.30
2023-02-11T15:14:22.681Z,6.22
2023-02-11T15:17:49.215Z,5.00
2023-02-11T15:20:53.339Z,6.50
2023-02-11T15:24:21.987Z,4.78
2023-02-11T15:27:27.392Z,5.03
2023-02-11T15:30:35.448Z,6.28
2023-02-11T15:33:42.624Z,5.20
2023-02-11T15:36:48.268Z,5.43
2023-02-11T15:39:52.941Z,6.20
2023-02-11T15:43:19.607Z,6.10
2023-02-11T15:46:24.304Z,5.68
2023-02-11T15:49:33.410Z,5.53
2023-02-11T15:52:41.764Z,6.20
2023-02-11T15:55:46.490Z,6.20
2023-02-11T15:59:00.333Z,4.97
2023-02-11T16:02:16.905Z,5.97
2023-02-11T16:05:26.862Z,5.55
2023-02-11T16:08:30.000Z,5.60
2023-02-11T16:11:53.766Z,6.18
2023-02-11T16:16:05.790Z,6.90
2023-02-11T16:19:35.251Z,6.55
2023-02-11T16:26:24.962Z,6.57
2023-02-11T16:29:55.682Z,6.45
2023-02-11T16:33:19.244Z,6.20
2023-02-11T16:36:27.436Z,5.22
2023-02-11T16:39:58.413Z,5.87
2023-02-11T16:43:22.996Z,6.07
2023-02-11T16:46:48.224Z,5.53
2023-02-11T16:49:51.551Z,5.72
2023-02-11T16:52:56.918Z,5.70
2023-02-11T16:56:29.059Z,7.53
2023-02-11T16:59:39.817Z,9.48
2023-02-11T17:02:47.176Z,9.38
2023-02-11T17:06:11.788Z,8.60
2023-02-11T17:09:35.439Z,8.43
2023-02-11T17:13:01.774Z,10.60
2023-02-11T17:16:25.295Z,10.57
2023-02-11T17:19:31.492Z,11.82
2023-02-11T17:22:58.229Z,11.85
2023-02-11T17:26:02.085Z,11.82
2023-02-11T17:29:12.356Z,11.35
2023-02-11T17:32:16.547Z,12.35
2023-02-11T17:35:42.291Z,11.02
2023-02-11T17:38:51.336Z,10.05
2023-02-11T17:41:56.671Z,10.90
2023-02-11T17:45:48.124Z,9.80
2023-02-11T17:49:30.645Z,9.10
2023-02-11T17:56:42.651Z,8.73
2023-02-11T17:59:49.064Z,9.00
2023-02-11T18:02:52.295Z,9.50
2023-02-11T18:06:01.194Z,11.00
2023-02-11T18:09:26.817Z,12.23
2023-02-11T18:12:50.232Z,11.20
2023-02-11T18:15:55.589Z,9.93
2023-02-11T18:19:03.604Z,11.10
2023-02-11T18:22:11.995Z,12.15
2023-02-11T18:25:21.635Z,11.70
2023-02-11T18:28:46.112Z,10.57
2023-02-11T18:32:14.413Z,10.65
2023-02-11T18:35:42.422Z,9.30
2023-02-11T18:38:48.753Z,8.38
2023-02-11T18:42:34.786Z,8.15
2023-02-11T18:46:12.966Z,7.28
2023-02-11T18:53:20.110Z,7.15
2023-02-11T18:56:45.306Z,10.68
2023-02-11T19:00:31.207Z,9.75
2023-02-11T19:08:28.733Z,9.30
2023-02-11T19:15:11.782Z,6.15
2023-02-11T19:18:19.076Z,5.57
2023-02-11T19:21:43.997Z,8.15
2023-02-11T19:24:54.338Z,8.05
2023-02-11T19:27:57.822Z,8.73
2023-02-11T19:31:48.872Z,8.20
2023-02-11T19:34:53.575Z,9.65
2023-02-11T19:38:04.987Z,10.27
2023-02-11T19:41:12.289Z,8.88
2023-02-11T19:44:36.407Z,7.22
2023-02-11T19:48:12.973Z,8.30
2023-02-11T19:51:19.250Z,7.45
2023-02-11T19:54:28.874Z,8.90
2023-02-11T19:57:55.837Z,6.03
2023-02-11T20:01:11.212Z,6.37
2023-02-11T20:04:54.833Z,6.82
2023-02-11T20:08:01.318Z,7.25
2023-02-11T20:11:16.318Z,7.15
2023-02-11T20:14:19.431Z,6.37
2023-02-11T20:18:04.735Z,6.45
2023-02-11T20:21:08.799Z,6.20
2023-02-11T20:24:34.636Z,5.13
2023-02-11T20:27:52.854Z,5.85
2023-02-11T20:31:18.684Z,5.50
2023-02-11T20:34:33.334Z,6.22
2023-02-11T20:38:05.654Z,6.87
2023-02-11T20:41:40.122Z,7.37
2023-02-11T20:45:06.128Z,6.62
2023-02-11T20:48:29.387Z,7.03
2023-02-11T20:51:35.123Z,8.32
2023-02-11T20:55:01.706Z,8.85
2023-02-11T20:58:06.940Z,8.50
2023-02-11T21:01:43.417Z,9.25
2023-02-11T21:05:14.985Z,5.62
2023-02-11T21:08:38.051Z,6.57
2023-02-11T21:11:44.028Z,7.68
2023-02-11T21:15:11.486Z,8.98
2023-02-11T21:18:37.319Z,7.65
2023-02-11T21:22:02.067Z,6.90
2023-02-11T21:25:45.548Z,6.65
2023-02-11T21:28:52.259Z,7.00
2023-02-11T21:32:17.779Z,7.12
2023-02-11T21:35:40.526Z,6.15
2023-02-11T21:39:07.176Z,6.37
2023-02-11T21:42:30.194Z,4.93
2023-02-11T21:45:34.994Z,3.80
2023-02-11T21:49:11.428Z,4.75
2023-02-11T21:52:14.364Z,5.35
2023-02-11T21:55:38.528Z,4.18
2023-02-11T21:58:47.459Z,5.50
2023-02-11T22:02:11.174Z,4.78
2023-02-11T22:05:35.107Z,4.18
2023-02-11T22:08:39.618Z,4.62
2023-02-11T22:11:50.234Z,4.45
2023-02-11T22:15:33.271Z,4.07
2023-02-11T22:18:38.272Z,5.57
2023-02-11T22:22:03.038Z,4.82
2023-02-11T22:25:26.421Z,4.40
2023-02-11T22:28:50.098Z,5.30
2023-02-11T22:31:55.489Z,4.07
2023-02-11T22:35:18.643Z,4.62
2023-02-11T22:38:43.470Z,4.70
2023-02-11T22:41:47.742Z,4.22
2023-02-11T22:45:11.813Z,4.70
2023-02-11T22:48:17.144Z,4.22
2023-02-11T22:51:41.112Z,4.05
2023-02-11T22:54:51.384Z,4.97
2023-02-11T22:57:57.323Z,5.50
2023-02-11T23:01:05.711Z,4.62
2023-02-11T23:04:14.074Z,4.12
2023-02-11T23:07:20.474Z,4.65
2023-02-11T23:10:24.037Z,4.07
2023-02-11T23:16:35.565Z,4.03
2023-02-11T23:19:42.409Z,4.60
2023-02-11T23:23:13.939Z,4.30
2023-02-11T23:26:26.348Z,4.90
2023-02-11T23:29:36.149Z,4.55
2023-02-11T23:32:40.960Z,4.32
2023-02-11T23:36:05.479Z,4.75
2023-02-11T23:39:15.942Z,4.45
2023-02-11T23:42:21.788Z,4.87
2023-02-11T23:45:52.865Z,3.70
2023-02-11T23:49:21.018Z,3.85
2023-02-11T23:52:31.949Z,4.75
2023-02-11T23:55:39.969Z,5.10
